Time;durP1;ratioP1;P1;durP2;ratioP2;P2;SDS_P1;SDS_P2;PMS_P1;PMS_P2;Temp;Humidity;BMP_temperature;BMP_pressure;BME280_temperature;BME280_humidity;BME280_pressure;Samples;Min_cycle;Max_cycle;Signal;HPM_P1;HPM_P2
2023/04/05 00:00:21;;;;;;;6.30;3.80;;;;;;;;;;4976448;28;20546;-75
2023/04/05 00:03:25;;;;;;;4.53;3.47;;;;;;;;;;4986636;28;20653;-74
2023/04/05 00:06:30;;;;;;;5.47;3.63;;;;;;;;;;4977006;28;20550;-74
2023/04/05 00:09:35;;;;;;;5.73;3.83;;;;;;;;;;4986870;28;20555;-75
2023/04/05 00:12:39;;;;;;;7.17;4.07;;;;;;;;;;4986572;28;20968;-75
2023/04/05 00:15:43;;;;;;;4.67;3.50;;;;;;;;;;4986594;28;20542;-75
2023/04/05 00:18:50;;;;;;;6.33;4.20;;;;;;;;;;4986636;28;20558;-75
2023/04/05 00:21:55;;;;;;;4.90;3.97;;;;;;;;;;4975686;28;20634;-74
2023/04/05 00:24:59;;;;;;;4.63;3.80;;;;;;;;;;4975402;28;20543;-74
2023/04/05 00:28:03;;;;;;;4.73;3.60;;;;;;;;;;4976252;28;20542;-74
2023/04/05 00:31:07;;;;;;;6.60;4.20;;;;;;;;;;4986312;28;20621;-74
2023/04/05 00:34:11;;;;;;;6.63;4.27;;;;;;;;;;4964019;28;20558;-75
2023/04/05 00:37:15;;;;;;;5.07;4.03;;;;;;;;;;4975764;28;20598;-74
2023/04/05 00:40:20;;;;;;;6.07;4.47;;;;;;;;;;4975676;28;20562;-74
2023/04/05 00:43:24;;;;;;;6.40;3.77;;;;;;;;;;4986197;28;20602;-74
2023/04/05 00:46:28;;;;;;;7.17;5.13;;;;;;;;;;4986248;28;20542;-75
2023/04/05 00:49:34;;;;;;;6.67;4.80;;;;;;;;;;4975051;28;21087;-75
2023/04/05 00:52:42;;;;;;;7.10;4.33;;;;;;;;;;4985834;28;20621;-74
2023/04/05 00:55:47;;;;;;;7.23;4.60;;;;;;;;;;4985813;28;20559;-74
2023/04/05 00:58:52;;;;;;;5.90;4.50;;;;;;;;;;4974871;28;20543;-74
2023/04/05 01:02:07;;;;;;;8.00;4.77;;;;;;;;;;4985584;28;20626;-75
2023/04/05 01:05:34;;;;;;;5.77;3.87;;;;;;;;;;4985732;28;20547;-74
2023/04/05 01:09:01;;;;;;;7.37;4.20;;;;;;;;;;4975512;28;20547;-74
2023/04/05 01:12:08;;;;;;;5.20;4.30;;;;;;;;;;4974562;28;20622;-74
2023/04/05 01:15:12;;;;;;;8.40;4.50;;;;;;;;;;4974571;28;20889;-74
2023/04/05 01:18:17;;;;;;;5.33;4.20;;;;;;;;;;4985596;28;20588;-74
2023/04/05 01:21:32;;;;;;;6.20;4.30;;;;;;;;;;4985464;28;20626;-74
2023/04/05 01:24:49;;;;;;;8.00;4.30;;;;;;;;;;4963096;28;20649;-74
2023/04/05 01:27:56;;;;;;;6.47;4.77;;;;;;;;;;4985777;28;20539;-74
2023/04/05 01:31:30;;;;;;;5.17;4.30;;;;;;;;;;4975053;28;20618;-74
2023/04/05 01:35:01;;;;;;;5.67;4.10;;;;;;;;;;4973799;28;20602;-75
2023/04/05 01:38:09;;;;;;;5.77;4.40;;;;;;;;;;4974183;28;20550;-75
2023/04/05 01:41:13;;;;;;;6.93;4.80;;;;;;;;;;4985112;28;20621;-74
2023/04/05 01:44:17;;;;;;;8.23;4.80;;;;;;;;;;4985118;28;20646;-74
2023/04/05 01:47:22;;;;;;;7.37;4.63;;;;;;;;;;4984907;28;21182;-74
2023/04/05 01:50:26;;;;;;;6.10;4.53;;;;;;;;;;4974791;28;20884;-74
2023/04/05 01:53:30;;;;;;;5.10;4.40;;;;;;;;;;4985127;28;20542;-74
2023/04/05 01:56:35;;;;;;;5.77;4.20;;;;;;;;;;4974142;28;20605;-74
2023/04/05 01:59:40;;;;;;;7.67;4.17;;;;;;;;;;4984760;28;20605;-75
2023/04/05 02:02:45;;;;;;;6.63;4.63;;;;;;;;;;4984735;28;20554;-75
2023/04/05 02:05:50;;;;;;;7.40;4.90;;;;;;;;;;4973811;28;20581;-74
2023/04/05 02:08:54;;;;;;;9.87;4.40;;;;;;;;;;4984612;28;20593;-74
2023/04/05 02:11:58;;;;;;;7.17;4.00;;;;;;;;;;4974312;28;20625;-74
2023/04/05 02:15:02;;;;;;;6.73;4.03;;;;;;;;;;4985146;28;21075;-75
2023/04/05 02:18:08;;;;;;;5.67;4.30;;;;;;;;;;4974320;28;20555;-74
2023/04/05 02:21:15;;;;;;;6.33;4.60;;;;;;;;;;4984750;28;20618;-75
2023/04/05 02:24:20;;;;;;;6.00;4.40;;;;;;;;;;4973471;28;20610;-74
2023/04/05 02:27:24;;;;;;;5.47;4.27;;;;;;;;;;4984537;28;20542;-74
2023/04/05 02:30:32;;;;;;;6.17;4.53;;;;;;;;;;4974022;28;20551;-74
2023/04/05 02:33:37;;;;;;;6.73;4.23;;;;;;;;;;4974183;28;20885;-75
2023/04/05 02:36:42;;;;;;;6.93;4.73;;;;;;;;;;4984669;28;20551;-74
2023/04/05 02:39:47;;;;;;;5.70;4.33;;;;;;;;;;4984569;28;20558;-74
2023/04/05 02:42:51;;;;;;;8.57;4.77;;;;;;;;;;4984650;28;20538;-75
2023/04/05 02:45:55;;;;;;;4.67;3.97;;;;;;;;;;4974968;28;20534;-74
2023/04/05 02:49:00;;;;;;;7.23;5.23;;;;;;;;;;4988451;28;20889;-75
2023/04/05 02:52:07;;;;;;;5.13;4.17;;;;;;;;;;4988349;28;20626;-75
2023/04/05 02:55:12;;;;;;;6.57;4.23;;;;;;;;;;4988134;28;20589;-74
2023/04/05 02:58:16;;;;;;;5.53;4.20;;;;;;;;;;4987949;28;20597;-75
2023/04/05 03:01:24;;;;;;;7.40;4.13;;;;;;;;;;4976861;28;20625;-74
2023/04/05 03:04:28;;;;;;;5.83;4.60;;;;;;;;;;4988116;28;20598;-74
2023/04/05 03:07:41;;;;;;;7.03;4.70;;;;;;;;;;4987762;28;20944;-75
2023/04/05 03:10:47;;;;;;;6.53;5.03;;;;;;;;;;4976563;28;20622;-74
2023/04/05 03:13:54;;;;;;;6.20;4.67;;;;;;;;;;4977618;28;20539;-75
2023/04/05 03:17:30;;;;;;;4.97;4.37;;;;;;;;;;4976728;28;20539;-74
2023/04/05 03:20:41;;;;;;;5.50;4.50;;;;;;;;;;4987462;28;20976;-75
2023/04/05 03:23:53;;;;;;;6.93;4.67;;;;;;;;;;4987781;28;20590;-75
2023/04/05 03:27:04;;;;;;;8.27;5.83;;;;;;;;;;4976539;28;20944;-75
2023/04/05 03:30:14;;;;;;;7.93;4.90;;;;;;;;;;4987435;28;21166;-74
2023/04/05 03:33:25;;;;;;;6.70;4.73;;;;;;;;;;4987519;28;20554;-75
2023/04/05 03:36:40;;;;;;;6.50;4.73;;;;;;;;;;4987406;28;20542;-74
2023/04/05 03:39:47;;;;;;;5.60;4.60;;;;;;;;;;4976048;28;20594;-74
2023/04/05 03:42:52;;;;;;;12.87;5.17;;;;;;;;;;4976619;28;20547;-75
2023/04/05 03:45:56;;;;;;;6.87;4.87;;;;;;;;;;4987445;28;20546;-75
2023/04/05 03:49:04;;;;;;;6.60;4.80;;;;;;;;;;4987237;28;20558;-74
2023/04/05 03:52:09;;;;;;;11.23;5.03;;;;;;;;;;4986958;28;20641;-74
2023/04/05 03:55:15;;;;;;;10.30;4.87;;;;;;;;;;4975773;28;20609;-74
2023/04/05 03:58:21;;;;;;;8.47;5.37;;;;;;;;;;4963753;28;20546;-74
2023/04/05 04:01:25;;;;;;;8.23;5.33;;;;;;;;;;4976710;28;20629;-74
2023/04/05 04:04:29;;;;;;;9.40;4.87;;;;;;;;;;4987012;28;20594;-74
2023/04/05 04:07:34;;;;;;;8.20;5.47;;;;;;;;;;4987050;28;20542;-74
2023/04/05 04:10:38;;;;;;;7.57;5.00;;;;;;;;;;4975469;28;20629;-74
2023/04/05 04:13:51;;;;;;;10.47;7.40;;;;;;;;;;4974834;28;21079;-74
2023/04/05 04:17:05;;;;;;;8.20;6.37;;;;;;;;;;4975503;28;20597;-74
2023/04/05 04:20:36;;;;;;;6.40;5.47;;;;;;;;;;4976286;28;20543;-75
2023/04/05 04:23:54;;;;;;;10.20;5.07;;;;;;;;;;4975979;28;20621;-75
2023/04/05 04:27:17;;;;;;;8.30;5.00;;;;;;;;;;4976313;28;20558;-74
2023/04/05 04:30:45;;;;;;;10.07;5.87;;;;;;;;;;4963559;28;21205;-75
2023/04/05 04:34:09;;;;;;;6.43;4.80;;;;;;;;;;4975743;28;20564;-75
2023/04/05 04:37:28;;;;;;;8.60;5.27;;;;;;;;;;4986447;28;21079;-74
2023/04/05 04:40:52;;;;;;;5.83;5.20;;;;;;;;;;4976199;28;20634;-75
2023/04/05 04:44:15;;;;;;;7.50;5.37;;;;;;;;;;4986341;28;20598;-74
2023/04/05 04:47:47;;;;;;;5.97;4.93;;;;;;;;;;4975595;28;20562;-75
2023/04/05 04:51:14;;;;;;;8.07;5.33;;;;;;;;;;4987135;28;20621;-75
2023/04/05 04:54:19;;;;;;;5.73;5.00;;;;;;;;;;4975698;28;20551;-75
2023/04/05 04:57:24;;;;;;;8.47;5.53;;;;;;;;;;4974909;28;20550;-74
2023/04/05 05:00:30;;;;;;;9.90;5.43;;;;;;;;;;4985910;28;20547;-75
2023/04/05 05:03:35;;;;;;;7.23;5.30;;;;;;;;;;4986234;28;20888;-75
2023/04/05 05:06:39;;;;;;;6.53;4.97;;;;;;;;;;4986010;28;20535;-74
2023/04/05 05:09:44;;;;;;;8.40;4.87;;;;;;;;;;4985496;28;20594;-74
2023/04/05 05:12:50;;;;;;;7.67;5.40;;;;;;;;;;4985700;28;20606;-74
2023/04/05 05:15:55;;;;;;;7.00;5.20;;;;;;;;;;4975655;28;20547;-74
2023/04/05 05:19:02;;;;;;;9.43;5.60;;;;;;;;;;4974218;28;20593;-75
2023/04/05 05:22:16;;;;;;;7.57;5.33;;;;;;;;;;4985490;28;20622;-75
2023/04/05 05:25:21;;;;;;;8.13;6.10;;;;;;;;;;4985294;28;20606;-75
2023/04/05 05:28:28;;;;;;;9.33;6.07;;;;;;;;;;4975149;28;21084;-75
2023/04/05 05:31:32;;;;;;;6.87;5.63;;;;;;;;;;4985291;28;20630;-75
2023/04/05 05:34:36;;;;;;;7.00;5.57;;;;;;;;;;4985257;28;20613;-72
2023/04/05 05:37:40;;;;;;;8.63;5.60;;;;;;;;;;4985598;28;20598;-72
2023/04/05 05:40:44;;;;;;;10.03;6.00;;;;;;;;;;4974551;28;20633;-72
2023/04/05 05:43:49;;;;;;;9.13;6.23;;;;;;;;;;4985133;28;20940;-72
2023/04/05 05:46:53;;;;;;;13.37;7.07;;;;;;;;;;4985218;28;20535;-71
2023/04/05 05:49:57;;;;;;;12.50;6.77;;;;;;;;;;4974555;28;20558;-72
2023/04/05 05:53:01;;;;;;;9.27;5.80;;;;;;;;;;4984731;28;20538;-72
2023/04/05 05:56:05;;;;;;;10.33;6.23;;;;;;;;;;4974352;28;20593;-72
2023/04/05 05:59:10;;;;;;;8.60;6.27;;;;;;;;;;4974286;28;20606;-72
2023/04/05 06:02:15;;;;;;;9.70;6.00;;;;;;;;;;4985405;28;20621;-72
2023/04/05 06:05:19;;;;;;;9.50;6.53;;;;;;;;;;4974199;28;20590;-72
2023/04/05 06:08:24;;;;;;;9.37;5.70;;;;;;;;;;4974558;28;20542;-72
2023/04/05 06:11:28;;;;;;;9.67;6.07;;;;;;;;;;4974709;28;20626;-72
2023/04/05 06:14:32;;;;;;;10.30;5.40;;;;;;;;;;4985245;28;20542;-72
2023/04/05 06:17:41;;;;;;;4.87;3.60;;;;;;;;;;4974481;28;20546;-72
2023/04/05 06:20:45;;;;;;;6.20;3.60;;;;;;;;;;4973165;28;20617;-72
2023/04/05 06:23:49;;;;;;;6.63;3.67;;;;;;;;;;4974662;28;20897;-71
2023/04/05 06:26:53;;;;;;;7.23;3.80;;;;;;;;;;4984944;28;20893;-72
2023/04/05 06:30:00;;;;;;;4.17;3.50;;;;;;;;;;4974471;28;20539;-72
2023/04/05 06:33:04;;;;;;;27.00;4.90;;;;;;;;;;4984639;28;20554;-72
2023/04/05 06:36:09;;;;;;;5.93;3.27;;;;;;;;;;4984528;28;20601;-72
2023/04/05 06:39:13;;;;;;;6.77;3.67;;;;;;;;;;4974539;28;20555;-72
2023/04/05 06:42:17;;;;;;;6.30;3.23;;;;;;;;;;4984445;28;20622;-72
2023/04/05 06:45:30;;;;;;;8.33;3.60;;;;;;;;;;4962653;28;20945;-72
2023/04/05 06:48:34;;;;;;;6.10;3.60;;;;;;;;;;4974196;28;20554;-72
2023/04/05 06:51:38;;;;;;;5.37;3.10;;;;;;;;;;4974177;28;20972;-72
2023/04/05 06:54:42;;;;;;;6.07;3.33;;;;;;;;;;4974552;28;20554;-72
2023/04/05 06:57:46;;;;;;;10.37;3.43;;;;;;;;;;4973969;28;20551;-72
2023/04/05 07:00:52;;;;;;;4.87;3.10;;;;;;;;;;4984616;28;20622;-72
2023/04/05 07:03:56;;;;;;;5.97;3.47;;;;;;;;;;4973468;28;20550;-72
2023/04/05 07:07:02;;;;;;;5.87;3.50;;;;;;;;;;4973329;28;20877;-72
2023/04/05 07:10:06;;;;;;;4.80;3.60;;;;;;;;;;4972890;28;20648;-73
2023/04/05 07:13:10;;;;;;;6.47;3.07;;;;;;;;;;4973606;28;20191;-75
2023/04/05 07:16:16;;;;;;;4.37;3.10;;;;;;;;;;4984330;28;20175;-75
2023/04/05 07:19:21;;;;;;;6.17;3.33;;;;;;;;;;4974005;28;20183;-76
2023/04/05 07:22:25;;;;;;;9.77;3.30;;;;;;;;;;4974293;28;20226;-75
2023/04/05 07:25:30;;;;;;;5.80;3.27;;;;;;;;;;4973624;28;20214;-75
2023/04/05 07:28:34;;;;;;;6.17;2.90;;;;;;;;;;4973602;28;20221;-75
2023/04/05 07:31:39;;;;;;;7.37;4.37;;;;;;;;;;4973953;28;20222;-75
2023/04/05 07:34:43;;;;;;;5.87;2.90;;;;;;;;;;4987214;28;20203;-75
2023/04/05 07:37:47;;;;;;;5.53;3.07;;;;;;;;;;4976760;28;20632;-75
2023/04/05 07:40:51;;;;;;;8.47;3.30;;;;;;;;;;4976775;28;20222;-75
2023/04/05 07:43:56;;;;;;;5.83;3.00;;;;;;;;;;4976157;28;20531;-75
2023/04/05 07:47:00;;;;;;;3.83;2.73;;;;;;;;;;4987507;28;20179;-75
2023/04/05 07:50:05;;;;;;;7.93;3.30;;;;;;;;;;4987313;28;20190;-75
2023/04/05 07:53:10;;;;;;;4.90;2.77;;;;;;;;;;4987615;28;20183;-75
2023/04/05 07:56:14;;;;;;;4.30;2.70;;;;;;;;;;4987015;28;20207;-75
2023/04/05 07:59:18;;;;;;;3.80;2.97;;;;;;;;;;4976823;28;20202;-75
2023/04/05 08:02:23;;;;;;;8.87;3.20;;;;;;;;;;4987057;28;20556;-75
2023/04/05 08:05:27;;;;;;;5.33;3.07;;;;;;;;;;4976334;28;20230;-75
2023/04/05 08:08:31;;;;;;;6.87;3.13;;;;;;;;;;4976587;28;20664;-75
2023/04/05 08:11:35;;;;;;;6.10;2.53;;;;;;;;;;4986776;28;20256;-75
2023/04/05 08:14:39;;;;;;;5.20;2.43;;;;;;;;;;4986596;28;20187;-76
2023/04/05 08:17:43;;;;;;;16.17;3.73;;;;;;;;;;4976207;28;20187;-75
2023/04/05 08:20:53;;;;;;;6.50;2.90;;;;;;;;;;4976377;28;20222;-75
2023/04/05 08:23:57;;;;;;;3.63;2.80;;;;;;;;;;4986420;28;20202;-73
2023/04/05 08:27:01;;;;;;;5.23;2.73;;;;;;;;;;4976352;28;20672;-74
2023/04/05 08:30:06;;;;;;;4.00;2.60;;;;;;;;;;4976224;28;20191;-75
2023/04/05 08:33:11;;;;;;;4.20;2.43;;;;;;;;;;4986385;28;20183;-75
2023/04/05 08:36:15;;;;;;;5.00;2.47;;;;;;;;;;4975796;28;20687;-75
2023/04/05 08:39:20;;;;;;;5.30;3.10;;;;;;;;;;4975831;28;20187;-75
2023/04/05 08:42:36;;;;;;;4.57;2.90;;;;;;;;;;4975740;28;20222;-75
2023/04/05 08:45:47;;;;;;;4.10;2.70;;;;;;;;;;4986250;28;20222;-75
2023/04/05 08:48:52;;;;;;;5.80;2.77;;;;;;;;;;4986220;28;20187;-76
2023/04/05 08:51:59;;;;;;;3.53;2.70;;;;;;;;;;4975507;28;20222;-75
2023/04/05 08:55:05;;;;;;;2.80;2.20;;;;;;;;;;4975726;28;20203;-76
2023/04/05 08:58:13;;;;;;;3.90;3.07;;;;;;;;;;4975568;28;20179;-75
2023/04/05 09:01:18;;;;;;;4.77;2.33;;;;;;;;;;4974720;28;20218;-75
2023/04/05 09:04:24;;;;;;;3.13;2.20;;;;;;;;;;4975385;28;20179;-75
2023/04/05 09:07:29;;;;;;;4.53;2.53;;;;;;;;;;4986009;28;20195;-75
2023/04/05 09:10:33;;;;;;;3.97;2.93;;;;;;;;;;4975108;28;20202;-75
2023/04/05 09:13:37;;;;;;;7.23;2.90;;;;;;;;;;4975447;28;20183;-75
2023/04/05 09:16:42;;;;;;;4.37;2.50;;;;;;;;;;4985678;28;20183;-75
2023/04/05 09:19:49;;;;;;;3.90;2.10;;;;;;;;;;4975213;28;20519;-75
2023/04/05 09:22:55;;;;;;;6.10;2.70;;;;;;;;;;4985872;28;20183;-75
2023/04/05 09:25:59;;;;;;;5.40;2.80;;;;;;;;;;4985227;28;20215;-75
2023/04/05 09:29:04;;;;;;;7.63;2.87;;;;;;;;;;4975463;28;20624;-75
2023/04/05 09:32:09;;;;;;;3.10;2.47;;;;;;;;;;4975044;28;20222;-75
2023/04/05 09:35:18;;;;;;;5.83;3.00;;;;;;;;;;4985017;28;20671;-75
2023/04/05 09:38:42;;;;;;;5.53;2.70;;;;;;;;;;4975045;28;20191;-75
2023/04/05 09:42:04;;;;;;;3.70;2.57;;;;;;;;;;4974637;28;20223;-75
2023/04/05 09:45:08;;;;;;;4.27;2.60;;;;;;;;;;4974041;28;20187;-76
2023/04/05 09:48:46;;;;;;;4.10;2.90;;;;;;;;;;4984931;28;20234;-75
2023/04/05 09:51:50;;;;;;;3.73;2.57;;;;;;;;;;4974595;28;20227;-75
2023/04/05 09:54:56;;;;;;;8.13;3.07;;;;;;;;;;4973296;28;20191;-74
2023/04/05 09:58:01;;;;;;;3.87;3.20;;;;;;;;;;4985067;28;20199;-75
2023/04/05 10:01:06;;;;;;;3.00;2.70;;;;;;;;;;4984956;28;20222;-75
2023/04/05 10:04:10;;;;;;;4.40;2.80;;;;;;;;;;4984721;28;20198;-75
2023/04/05 10:07:17;;;;;;;4.53;2.80;;;;;;;;;;4984585;28;20226;-75
2023/04/05 10:10:22;;;;;;;4.93;2.80;;;;;;;;;;4974308;28;20560;-74
2023/04/05 10:13:28;;;;;;;4.23;3.00;;;;;;;;;;4973790;28;20191;-75
2023/04/05 10:16:35;;;;;;;4.83;3.10;;;;;;;;;;4973526;28;20203;-75
2023/04/05 10:20:02;;;;;;;5.07;3.40;;;;;;;;;;4974450;28;20202;-75
2023/04/05 10:23:11;;;;;;;6.47;2.97;;;;;;;;;;4980201;28;20183;-74
2023/04/05 10:26:45;;;;;;;5.93;2.90;;;;;;;;;;4973644;28;20557;-75
2023/04/05 10:30:01;;;;;;;5.17;3.20;;;;;;;;;;4980109;28;20182;-75
2023/04/05 10:33:28;;;;;;;3.20;2.83;;;;;;;;;;4984423;28;20549;-75
2023/04/05 10:36:54;;;;;;;4.03;2.97;;;;;;;;;;4974315;28;20514;-76
2023/04/05 10:40:03;;;;;;;5.47;3.90;;;;;;;;;;4974053;28;20187;-75
2023/04/05 10:43:15;;;;;;;7.20;2.87;;;;;;;;;;4974147;28;20186;-75
2023/04/05 10:46:21;;;;;;;5.57;2.57;;;;;;;;;;4974039;28;20222;-74
2023/04/05 10:49:35;;;;;;;4.27;2.77;;;;;;;;;;4984565;28;20187;-75
2023/04/05 10:52:41;;;;;;;3.67;2.50;;;;;;;;;;4984111;28;20226;-74
2023/04/05 10:55:45;;;;;;;4.87;2.63;;;;;;;;;;4984240;28;20187;-74
2023/04/05 10:58:51;;;;;;;3.53;2.70;;;;;;;;;;4984533;28;20183;-74
2023/04/05 11:01:56;;;;;;;14.23;6.20;;;;;;;;;;4984729;28;20222;-74
2023/04/05 11:05:03;;;;;;;14.87;5.80;;;;;;;;;;4973981;28;20629;-75
2023/04/05 11:08:10;;;;;;;49.70;19.57;;;;;;;;;;4976809;28;20192;-75
2023/04/05 11:11:16;;;;;;;3.77;2.70;;;;;;;;;;4987909;28;20221;-75
2023/04/05 11:14:37;;;;;;;8.70;4.13;;;;;;;;;;4976775;28;20191;-75
2023/04/05 11:17:41;;;;;;;6.70;3.13;;;;;;;;;;4977434;28;20187;-75
2023/04/05 11:20:54;;;;;;;5.90;4.10;;;;;;;;;;4977302;28;20222;-75
2023/04/05 11:24:05;;;;;;;17.27;6.40;;;;;;;;;;4987763;28;20537;-75
2023/04/05 11:27:09;;;;;;;4.23;2.60;;;;;;;;;;4987673;28;20249;-75
2023/04/05 11:30:13;;;;;;;5.77;2.93;;;;;;;;;;4976625;28;20191;-76
2023/04/05 11:33:36;;;;;;;5.60;3.20;;;;;;;;;;4987566;28;20187;-75
2023/04/05 11:36:44;;;;;;;6.33;2.63;;;;;;;;;;4976453;28;20187;-76
2023/04/05 11:40:27;;;;;;;6.87;3.40;;;;;;;;;;4987206;28;20524;-74
2023/04/05 11:43:34;;;;;;;3.93;2.90;;;;;;;;;;4987522;28;20195;-74
2023/04/05 11:46:38;;;;;;;4.77;2.90;;;;;;;;;;4987343;28;20219;-74
2023/04/05 11:49:42;;;;;;;3.57;2.83;;;;;;;;;;4976159;28;20187;-74
2023/04/05 11:53:06;;;;;;;3.17;2.50;;;;;;;;;;4976595;28;20203;-74
2023/04/05 11:56:14;;;;;;;5.33;2.80;;;;;;;;;;4976626;28;20191;-76
2023/04/05 11:59:18;;;;;;;4.23;2.50;;;;;;;;;;4976517;28;20636;-75
2023/04/05 12:02:23;;;;;;;8.60;3.50;;;;;;;;;;4976512;28;20226;-75
2023/04/05 12:05:49;;;;;;;5.10;3.40;;;;;;;;;;4976515;28;20525;-75
2023/04/05 12:08:54;;;;;;;4.53;2.70;;;;;;;;;;4976652;28;20179;-75
2023/04/05 12:11:59;;;;;;;5.23;3.03;;;;;;;;;;4986596;28;20219;-75
2023/04/05 12:15:05;;;;;;;4.07;2.50;;;;;;;;;;4986937;28;20187;-75
2023/04/05 12:18:13;;;;;;;6.23;3.40;;;;;;;;;;4985789;28;20183;-75
2023/04/05 12:21:18;;;;;;;6.03;2.83;;;;;;;;;;4976094;28;20222;-75
2023/04/05 12:24:21;;;;;;;4.90;3.20;;;;;;;;;;4975521;28;20191;-75
2023/04/05 12:27:26;;;;;;;3.87;2.60;;;;;;;;;;4975460;28;20688;-75
2023/04/05 12:30:35;;;;;;;7.30;3.50;;;;;;;;;;4976205;28;20183;-75
2023/04/05 12:33:41;;;;;;;5.80;3.10;;;;;;;;;;4975223;28;20191;-74
2023/04/05 12:36:47;;;;;;;7.13;2.77;;;;;;;;;;4975874;28;20195;-75
2023/04/05 12:39:53;;;;;;;29.10;13.37;;;;;;;;;;4974891;28;20203;-75
2023/04/05 12:43:06;;;;;;;9.80;4.93;;;;;;;;;;4976024;28;20194;-75
2023/04/05 12:46:15;;;;;;;4.67;2.90;;;;;;;;;;4975161;28;20179;-74
2023/04/05 12:49:19;;;;;;;8.00;2.60;;;;;;;;;;4975565;28;20187;-74
2023/04/05 12:52:26;;;;;;;3.50;2.87;;;;;;;;;;4985690;28;20214;-75
2023/04/05 12:55:30;;;;;;;8.17;3.10;;;;;;;;;;4985814;28;20186;-75
2023/04/05 12:58:36;;;;;;;5.67;2.67;;;;;;;;;;4986079;28;20183;-74
2023/04/05 13:01:39;;;;;;;6.23;2.93;;;;;;;;;;4975478;28;20223;-74
2023/04/05 13:04:44;;;;;;;4.57;3.00;;;;;;;;;;4985638;28;20186;-75
2023/04/05 13:07:49;;;;;;;5.93;3.70;;;;;;;;;;4985595;28;20572;-75
2023/04/05 13:10:53;;;;;;;5.10;3.00;;;;;;;;;;4975193;28;20215;-75
2023/04/05 13:13:58;;;;;;;5.13;3.53;;;;;;;;;;4975488;28;20190;-76
2023/04/05 13:17:02;;;;;;;7.87;5.83;;;;;;;;;;4975327;28;20183;-76
2023/04/05 13:20:07;;;;;;;7.13;3.20;;;;;;;;;;4975124;28;20187;-75
2023/04/05 13:23:12;;;;;;;4.57;2.80;;;;;;;;;;4985592;28;20191;-75
2023/04/05 13:26:17;;;;;;;5.43;2.90;;;;;;;;;;4974966;28;20647;-76
2023/04/05 13:29:21;;;;;;;3.20;2.60;;;;;;;;;;4985306;28;20191;-76
2023/04/05 13:32:25;;;;;;;4.50;2.70;;;;;;;;;;4985285;28;20226;-76
2023/04/05 13:35:30;;;;;;;5.77;3.07;;;;;;;;;;4974849;28;20210;-76
2023/04/05 13:38:33;;;;;;;4.20;2.77;;;;;;;;;;4985480;28;20183;-76
2023/04/05 13:41:37;;;;;;;4.73;2.90;;;;;;;;;;4985031;28;20222;-76
2023/04/05 13:44:42;;;;;;;3.23;2.80;;;;;;;;;;4974923;28;20182;-76
2023/04/05 13:47:46;;;;;;;4.83;2.63;;;;;;;;;;4985084;28;20210;-76
2023/04/05 13:50:50;;;;;;;4.47;2.73;;;;;;;;;;4974760;28;20687;-76
2023/04/05 13:53:54;;;;;;;5.83;3.00;;;;;;;;;;4985161;28;20183;-76
2023/04/05 13:56:59;;;;;;;5.83;3.03;;;;;;;;;;4974474;28;20198;-76
2023/04/05 14:00:04;;;;;;;4.50;2.60;;;;;;;;;;4974469;28;20207;-76
2023/04/05 14:03:15;;;;;;;5.67;2.90;;;;;;;;;;4985133;28;20186;-76
2023/04/05 14:06:20;;;;;;;3.43;2.40;;;;;;;;;;4973835;28;20187;-76
2023/04/05 14:09:24;;;;;;;4.80;2.67;;;;;;;;;;4973778;28;20530;-76
2023/04/05 14:12:29;;;;;;;4.07;2.77;;;;;;;;;;4974530;28;20222;-75
2023/04/05 14:15:33;;;;;;;5.67;3.00;;;;;;;;;;4985178;28;20183;-76
2023/04/05 14:18:37;;;;;;;3.90;3.27;;;;;;;;;;4984556;28;20187;-76
2023/04/05 14:21:41;;;;;;;3.10;2.80;;;;;;;;;;4984592;28;20226;-76
2023/04/05 14:24:45;;;;;;;4.10;2.70;;;;;;;;;;4974206;28;20187;-75
2023/04/05 14:27:49;;;;;;;4.40;2.73;;;;;;;;;;4973118;28;20226;-75
2023/04/05 14:30:54;;;;;;;4.00;2.87;;;;;;;;;;4984481;28;20226;-76
2023/04/05 14:33:58;;;;;;;4.60;2.97;;;;;;;;;;4984703;28;20656;-76
2023/04/05 14:37:03;;;;;;;5.13;2.57;;;;;;;;;;4984539;28;20187;-75
2023/04/05 14:40:07;;;;;;;4.10;2.73;;;;;;;;;;4974161;28;20187;-75
2023/04/05 14:43:11;;;;;;;16.03;3.13;;;;;;;;;;4977562;28;20186;-75
2023/04/05 14:46:15;;;;;;;3.70;2.73;;;;;;;;;;4978347;28;20542;-76
2023/04/05 14:49:20;;;;;;;5.90;2.70;;;;;;;;;;4978250;28;20186;-76
2023/04/05 14:52:24;;;;;;;3.77;3.00;;;;;;;;;;4977880;28;20568;-75
2023/04/05 14:55:28;;;;;;;4.73;2.90;;;;;;;;;;4988126;28;20648;-76
2023/04/05 14:58:33;;;;;;;4.63;2.70;;;;;;;;;;4988190;28;20632;-75
2023/04/05 15:01:38;;;;;;;4.33;2.30;;;;;;;;;;4988370;28;20218;-76
2023/04/05 15:04:42;;;;;;;5.20;3.23;;;;;;;;;;4977963;28;20207;-76
2023/04/05 15:07:46;;;;;;;4.57;3.03;;;;;;;;;;4977379;28;20210;-76
2023/04/05 15:10:51;;;;;;;4.73;2.63;;;;;;;;;;4987675;28;20699;-77
2023/04/05 15:13:54;;;;;;;4.43;2.90;;;;;;;;;;4976988;28;20186;-76
2023/04/05 15:16:59;;;;;;;3.87;2.90;;;;;;;;;;4977764;28;20178;-76
2023/04/05 15:20:03;;;;;;;4.63;2.67;;;;;;;;;;4987461;28;20190;-76
2023/04/05 15:23:08;;;;;;;4.43;2.80;;;;;;;;;;4977443;28;20370;-76
2023/04/05 15:26:12;;;;;;;4.03;3.10;;;;;;;;;;4976821;28;20187;-77
2023/04/05 15:29:16;;;;;;;4.17;2.43;;;;;;;;;;4977057;28;20214;-76
2023/04/05 15:32:20;;;;;;;3.13;2.77;;;;;;;;;;4987596;28;20218;-76
2023/04/05 15:35:25;;;;;;;5.33;3.37;;;;;;;;;;4976958;28;20214;-76
2023/04/05 15:38:29;;;;;;;3.30;3.00;;;;;;;;;;4987517;28;20207;-76
2023/04/05 15:41:33;;;;;;;4.73;2.90;;;;;;;;;;4977169;28;20222;-77
2023/04/05 15:44:37;;;;;;;9.17;4.30;;;;;;;;;;4987388;28;20190;-75
2023/04/05 15:47:42;;;;;;;5.23;3.30;;;;;;;;;;4987606;28;20211;-76
2023/04/05 15:50:46;;;;;;;6.27;3.70;;;;;;;;;;4987192;28;20222;-75
2023/04/05 15:53:51;;;;;;;13.33;5.70;;;;;;;;;;4986906;28;20187;-76
2023/04/05 15:56:55;;;;;;;10.47;3.70;;;;;;;;;;4977171;28;20620;-75
2023/04/05 15:59:59;;;;;;;6.20;3.60;;;;;;;;;;4977298;28;20187;-75
2023/04/05 16:03:04;;;;;;;7.93;4.80;;;;;;;;;;4976627;28;20191;-76
2023/04/05 16:06:08;;;;;;;4.17;3.10;;;;;;;;;;4987348;28;20517;-75
2023/04/05 16:09:12;;;;;;;5.50;3.00;;;;;;;;;;4975580;28;20222;-76
2023/04/05 16:12:16;;;;;;;2.93;2.60;;;;;;;;;;4976183;28;20226;-76
2023/04/05 16:15:20;;;;;;;3.07;2.67;;;;;;;;;;4975640;28;20187;-76
2023/04/05 16:18:26;;;;;;;4.83;3.50;;;;;;;;;;4976482;28;20183;-76
2023/04/05 16:21:30;;;;;;;4.13;2.90;;;;;;;;;;4986623;28;20214;-76
2023/04/05 16:24:37;;;;;;;6.10;3.23;;;;;;;;;;4986542;28;20191;-76
2023/04/05 16:27:41;;;;;;;5.13;3.23;;;;;;;;;;4975629;28;20668;-76
2023/04/05 16:30:46;;;;;;;3.50;2.60;;;;;;;;;;4986495;28;20222;-75
2023/04/05 16:33:52;;;;;;;4.23;3.30;;;;;;;;;;4986640;28;20186;-76
2023/04/05 16:36:56;;;;;;;5.23;3.07;;;;;;;;;;4976388;28;20183;-76
2023/04/05 16:40:01;;;;;;;3.90;2.80;;;;;;;;;;4986357;28;20187;-75
2023/04/05 16:43:05;;;;;;;4.03;2.87;;;;;;;;;;4975699;28;20187;-75
2023/04/05 16:46:10;;;;;;;2.90;2.47;;;;;;;;;;4975790;28;20191;-77
2023/04/05 16:49:14;;;;;;;4.53;2.80;;;;;;;;;;4975708;28;20230;-76
2023/04/05 16:52:18;;;;;;;4.60;3.00;;;;;;;;;;4975498;28;20227;-76
2023/04/05 16:55:23;;;;;;;5.60;3.07;;;;;;;;;;4976004;28;20203;-76
2023/04/05 16:58:27;;;;;;;3.93;2.83;;;;;;;;;;4975917;28;20187;-76
2023/04/05 17:01:31;;;;;;;5.53;2.63;;;;;;;;;;4975485;28;20222;-77
2023/04/05 17:04:35;;;;;;;4.13;2.70;;;;;;;;;;4985491;28;20211;-76
2023/04/05 17:07:40;;;;;;;4.83;2.77;;;;;;;;;;4974895;28;20202;-76
2023/04/05 17:10:44;;;;;;;4.90;3.10;;;;;;;;;;4985763;28;20226;-76
2023/04/05 17:13:48;;;;;;;4.13;2.70;;;;;;;;;;4975397;28;20195;-76
2023/04/05 17:16:53;;;;;;;4.17;2.60;;;;;;;;;;4985999;28;20187;-76
2023/04/05 17:19:57;;;;;;;5.50;2.87;;;;;;;;;;4985557;28;20175;-76
2023/04/05 17:23:01;;;;;;;3.30;2.40;;;;;;;;;;4975059;28;20498;-76
2023/04/05 17:26:05;;;;;;;3.50;2.47;;;;;;;;;;4976306;28;20191;-78
2023/04/05 17:29:11;;;;;;;4.00;2.87;;;;;;;;;;4978474;28;20214;-77
2023/04/05 17:32:15;;;;;;;6.53;2.93;;;;;;;;;;4974885;28;20222;-76
2023/04/05 17:35:19;;;;;;;4.77;2.40;;;;;;;;;;4985410;28;20214;-76
2023/04/05 17:38:23;;;;;;;2.60;2.00;;;;;;;;;;4985841;28;20517;-76
2023/04/05 17:41:27;;;;;;;5.33;2.50;;;;;;;;;;4974890;28;20218;-77
2023/04/05 17:44:32;;;;;;;3.50;2.40;;;;;;;;;;4974601;28;20202;-76
2023/04/05 17:47:36;;;;;;;5.93;3.13;;;;;;;;;;4973993;28;20206;-76
2023/04/05 17:50:40;;;;;;;3.33;2.60;;;;;;;;;;4974705;28;20222;-77
2023/04/05 17:53:44;;;;;;;5.47;2.50;;;;;;;;;;4985037;28;20186;-76
2023/04/05 17:56:48;;;;;;;2.33;2.13;;;;;;;;;;4975281;28;20183;-76
2023/04/05 17:59:53;;;;;;;3.80;2.23;;;;;;;;;;4974600;28;20187;-76
2023/04/05 18:02:57;;;;;;;3.27;2.13;;;;;;;;;;4975577;28;20186;-77
2023/04/05 18:06:01;;;;;;;3.63;2.37;;;;;;;;;;4975619;28;20190;-77
2023/04/05 18:09:07;;;;;;;3.57;2.23;;;;;;;;;;4987066;28;20214;-77
2023/04/05 18:12:11;;;;;;;5.50;2.47;;;;;;;;;;4974071;28;20321;-76
2023/04/05 18:15:17;;;;;;;4.83;2.33;;;;;;;;;;4974432;28;20187;-75
2023/04/05 18:18:21;;;;;;;3.77;2.10;;;;;;;;;;4984362;28;20186;-76
2023/04/05 18:21:25;;;;;;;3.40;2.00;;;;;;;;;;4984827;28;20218;-76
2023/04/05 18:24:30;;;;;;;4.67;2.40;;;;;;;;;;4984511;28;20656;-76
2023/04/05 18:27:34;;;;;;;3.57;2.27;;;;;;;;;;4974335;28;20191;-75
2023/04/05 18:30:38;;;;;;;5.37;2.33;;;;;;;;;;4985406;28;20561;-75
2023/04/05 18:33:42;;;;;;;5.87;2.30;;;;;;;;;;4974456;28;20625;-76
2023/04/05 18:36:46;;;;;;;3.17;2.40;;;;;;;;;;4974233;28;20187;-76
2023/04/05 18:39:50;;;;;;;4.23;2.80;;;;;;;;;;4984785;28;20195;-76